sensor_id;sensor_type;location;lat;lon;timestamp;P1;durP1;ratioP1;P2;durP2;ratioP2
40284;SDS011;25997;50.214;19.354;2022-12-24T00:02:49;30.02;;;26.67;;
40284;SDS011;25997;50.214;19.354;2022-12-24T00:05:52;29.58;;;25.30;;
40284;SDS011;25997;50.214;19.354;2022-12-24T00:08:55;31.83;;;26.10;;
40284;SDS011;25997;50.214;19.354;2022-12-24T00:11:59;28.95;;;23.38;;
40284;SDS011;25997;50.214;19.354;2022-12-24T00:15:01;25.20;;;22.48;;
40284;SDS011;25997;50.214;19.354;2022-12-24T00:18:04;26.73;;;23.17;;
40284;SDS011;25997;50.214;19.354;2022-12-24T00:21:06;31.02;;;23.77;;
40284;SDS011;25997;50.214;19.354;2022-12-24T00:24:09;25.33;;;22.67;;
40284;SDS011;25997;50.214;19.354;2022-12-24T00:27:13;24.35;;;21.75;;
40284;SDS011;25997;50.214;19.354;2022-12-24T00:30:15;28.35;;;23.02;;
40284;SDS011;25997;50.214;19.354;2022-12-24T00:33:18;30.80;;;24.40;;
40284;SDS011;25997;50.214;19.354;2022-12-24T00:36:21;35.13;;;29.45;;
40284;SDS011;25997;50.214;19.354;2022-12-24T00:39:23;31.95;;;28.15;;
40284;SDS011;25997;50.214;19.354;2022-12-24T00:42:27;32.78;;;27.75;;
40284;SDS011;25997;50.214;19.354;2022-12-24T00:45:30;31.92;;;28.30;;
40284;SDS011;25997;50.214;19.354;2022-12-24T00:48:32;34.83;;;27.88;;
40284;SDS011;25997;50.214;19.354;2022-12-24T00:51:35;30.23;;;24.08;;
40284;SDS011;25997;50.214;19.354;2022-12-24T00:54:37;22.60;;;19.20;;
40284;SDS011;25997;50.214;19.354;2022-12-24T00:57:41;28.15;;;25.15;;
40284;SDS011;25997;50.214;19.354;2022-12-24T01:00:44;28.80;;;23.70;;
40284;SDS011;25997;50.214;19.354;2022-12-24T01:03:46;27.35;;;22.33;;
40284;SDS011;25997;50.214;19.354;2022-12-24T01:06:50;24.63;;;20.45;;
40284;SDS011;25997;50.214;19.354;2022-12-24T01:09:52;20.27;;;16.10;;
40284;SDS011;25997;50.214;19.354;2022-12-24T01:12:55;18.05;;;13.98;;
40284;SDS011;25997;50.214;19.354;2022-12-24T01:15:58;20.13;;;15.43;;
40284;SDS011;25997;50.214;19.354;2022-12-24T01:19:01;19.70;;;14.65;;
40284;SDS011;25997;50.214;19.354;2022-12-24T01:22:03;16.88;;;15.13;;
40284;SDS011;25997;50.214;19.354;2022-12-24T01:25:06;15.82;;;14.18;;
40284;SDS011;25997;50.214;19.354;2022-12-24T01:28:10;14.23;;;12.45;;
40284;SDS011;25997;50.214;19.354;2022-12-24T01:31:13;20.15;;;16.77;;
40284;SDS011;25997;50.214;19.354;2022-12-24T01:34:17;17.40;;;15.52;;
40284;SDS011;25997;50.214;19.354;2022-12-24T01:37:20;20.50;;;15.60;;
40284;SDS011;25997;50.214;19.354;2022-12-24T01:40:24;17.55;;;15.15;;
40284;SDS011;25997;50.214;19.354;2022-12-24T01:43:46;17.10;;;15.10;;
40284;SDS011;25997;50.214;19.354;2022-12-24T01:46:49;14.95;;;13.13;;
40284;SDS011;25997;50.214;19.354;2022-12-24T01:49:55;17.48;;;14.60;;
40284;SDS011;25997;50.214;19.354;2022-12-24T01:53:00;16.20;;;12.90;;
40284;SDS011;25997;50.214;19.354;2022-12-24T01:56:05;15.68;;;13.65;;
40284;SDS011;25997;50.214;19.354;2022-12-24T01:59:13;16.08;;;14.38;;
40284;SDS011;25997;50.214;19.354;2022-12-24T02:02:17;15.02;;;13.43;;
40284;SDS011;25997;50.214;19.354;2022-12-24T02:05:21;15.85;;;13.60;;
40284;SDS011;25997;50.214;19.354;2022-12-24T02:08:29;13.77;;;11.98;;
40284;SDS011;25997;50.214;19.354;2022-12-24T02:11:40;15.93;;;11.68;;
40284;SDS011;25997;50.214;19.354;2022-12-24T02:14:46;13.32;;;10.77;;
40284;SDS011;25997;50.214;19.354;2022-12-24T02:17:51;16.38;;;10.98;;
40284;SDS011;25997;50.214;19.354;2022-12-24T02:21:08;13.63;;;10.65;;
40284;SDS011;25997;50.214;19.354;2022-12-24T02:24:41;12.57;;;9.45;;
40284;SDS011;25997;50.214;19.354;2022-12-24T02:28:00;13.65;;;10.27;;
40284;SDS011;25997;50.214;19.354;2022-12-24T02:31:14;13.93;;;11.05;;
40284;SDS011;25997;50.214;19.354;2022-12-24T02:34:22;12.57;;;10.48;;
40284;SDS011;25997;50.214;19.354;2022-12-24T02:37:31;12.15;;;8.95;;
40284;SDS011;25997;50.214;19.354;2022-12-24T02:40:39;12.38;;;9.77;;
40284;SDS011;25997;50.214;19.354;2022-12-24T02:43:46;15.75;;;12.07;;
40284;SDS011;25997;50.214;19.354;2022-12-24T02:46:53;15.43;;;11.73;;
40284;SDS011;25997;50.214;19.354;2022-12-24T02:49:58;12.77;;;10.05;;
40284;SDS011;25997;50.214;19.354;2022-12-24T02:53:02;10.93;;;8.95;;
40284;SDS011;25997;50.214;19.354;2022-12-24T02:56:08;10.55;;;8.15;;
40284;SDS011;25997;50.214;19.354;2022-12-24T02:59:28;12.38;;;9.05;;
40284;SDS011;25997;50.214;19.354;2022-12-24T03:02:54;14.05;;;9.90;;
40284;SDS011;25997;50.214;19.354;2022-12-24T03:06:08;12.55;;;9.73;;
40284;SDS011;25997;50.214;19.354;2022-12-24T03:09:19;12.48;;;10.27;;
40284;SDS011;25997;50.214;19.354;2022-12-24T03:12:28;13.20;;;9.55;;
40284;SDS011;25997;50.214;19.354;2022-12-24T03:15:35;14.68;;;10.93;;
40284;SDS011;25997;50.214;19.354;2022-12-24T03:18:41;12.98;;;10.80;;
40284;SDS011;25997;50.214;19.354;2022-12-24T03:21:46;10.88;;;8.45;;
40284;SDS011;25997;50.214;19.354;2022-12-24T03:24:50;10.77;;;8.00;;
40284;SDS011;25997;50.214;19.354;2022-12-24T03:27:53;14.02;;;11.60;;
40284;SDS011;25997;50.214;19.354;2022-12-24T03:30:59;9.45;;;7.55;;
40284;SDS011;25997;50.214;19.354;2022-12-24T03:34:04;8.68;;;6.53;;
40284;SDS011;25997;50.214;19.354;2022-12-24T03:37:06;10.00;;;8.75;;
40284;SDS011;25997;50.214;19.354;2022-12-24T03:40:09;7.97;;;6.97;;
40284;SDS011;25997;50.214;19.354;2022-12-24T03:43:12;9.13;;;7.82;;
40284;SDS011;25997;50.214;19.354;2022-12-24T03:46:14;9.27;;;7.40;;
40284;SDS011;25997;50.214;19.354;2022-12-24T03:49:18;12.23;;;9.85;;
40284;SDS011;25997;50.214;19.354;2022-12-24T03:52:21;17.77;;;13.20;;
40284;SDS011;25997;50.214;19.354;2022-12-24T03:55:24;15.90;;;12.07;;
40284;SDS011;25997;50.214;19.354;2022-12-24T03:58:26;14.50;;;11.90;;
40284;SDS011;25997;50.214;19.354;2022-12-24T04:01:29;14.57;;;12.20;;
40284;SDS011;25997;50.214;19.354;2022-12-24T04:04:33;17.38;;;13.25;;
40284;SDS011;25997;50.214;19.354;2022-12-24T04:07:37;18.80;;;15.73;;
40284;SDS011;25997;50.214;19.354;2022-12-24T04:10:39;19.70;;;16.00;;
40284;SDS011;25997;50.214;19.354;2022-12-24T04:13:42;21.60;;;18.13;;
40284;SDS011;25997;50.214;19.354;2022-12-24T04:16:45;20.67;;;17.48;;
40284;SDS011;25997;50.214;19.354;2022-12-24T04:19:49;20.20;;;15.82;;
40284;SDS011;25997;50.214;19.354;2022-12-24T04:22:51;19.85;;;15.93;;
40284;SDS011;25997;50.214;19.354;2022-12-24T04:25:54;21.23;;;18.65;;
40284;SDS011;25997;50.214;19.354;2022-12-24T04:28:57;20.75;;;17.05;;
40284;SDS011;25997;50.214;19.354;2022-12-24T04:31:59;18.17;;;15.27;;
40284;SDS011;25997;50.214;19.354;2022-12-24T04:35:04;20.25;;;17.00;;
40284;SDS011;25997;50.214;19.354;2022-12-24T04:38:07;13.57;;;12.20;;
40284;SDS011;25997;50.214;19.354;2022-12-24T04:41:10;15.98;;;13.75;;
40284;SDS011;25997;50.214;19.354;2022-12-24T04:44:14;15.57;;;13.98;;
40284;SDS011;25997;50.214;19.354;2022-12-24T04:47:17;15.98;;;14.38;;
40284;SDS011;25997;50.214;19.354;2022-12-24T04:50:21;15.50;;;13.25;;
40284;SDS011;25997;50.214;19.354;2022-12-24T04:53:23;15.32;;;13.68;;
40284;SDS011;25997;50.214;19.354;2022-12-24T04:56:26;14.35;;;12.85;;
40284;SDS011;25997;50.214;19.354;2022-12-24T04:59:31;16.98;;;15.18;;
40284;SDS011;25997;50.214;19.354;2022-12-24T05:02:33;16.55;;;14.20;;
40284;SDS011;25997;50.214;19.354;2022-12-24T05:05:37;15.48;;;13.98;;
40284;SDS011;25997;50.214;19.354;2022-12-24T05:08:40;16.83;;;15.02;;
40284;SDS011;25997;50.214;19.354;2022-12-24T05:11:43;21.10;;;18.98;;
40284;SDS011;25997;50.214;19.354;2022-12-24T05:14:46;16.77;;;15.00;;
40284;SDS011;25997;50.214;19.354;2022-12-24T05:17:48;14.70;;;13.23;;
40284;SDS011;25997;50.214;19.354;2022-12-24T05:20:52;14.27;;;12.98;;
40284;SDS011;25997;50.214;19.354;2022-12-24T05:23:55;18.33;;;16.48;;
40284;SDS011;25997;50.214;19.354;2022-12-24T05:27:15;20.25;;;17.15;;
40284;SDS011;25997;50.214;19.354;2022-12-24T05:30:17;18.48;;;16.45;;
40284;SDS011;25997;50.214;19.354;2022-12-24T05:33:20;16.08;;;14.52;;
40284;SDS011;25997;50.214;19.354;2022-12-24T05:36:24;21.77;;;19.77;;
40284;SDS011;25997;50.214;19.354;2022-12-24T05:39:27;16.58;;;14.93;;
40284;SDS011;25997;50.214;19.354;2022-12-24T05:42:29;18.35;;;16.55;;
40284;SDS011;25997;50.214;19.354;2022-12-24T05:45:32;19.30;;;17.40;;
40284;SDS011;25997;50.214;19.354;2022-12-24T05:48:34;17.63;;;15.88;;
40284;SDS011;25997;50.214;19.354;2022-12-24T05:51:38;18.38;;;16.58;;
40284;SDS011;25997;50.214;19.354;2022-12-24T05:54:41;16.88;;;15.07;;
40284;SDS011;25997;50.214;19.354;2022-12-24T05:57:44;17.05;;;15.35;;
40284;SDS011;25997;50.214;19.354;2022-12-24T06:00:46;20.52;;;18.45;;
40284;SDS011;25997;50.214;19.354;2022-12-24T06:03:49;17.60;;;15.95;;
40284;SDS011;25997;50.214;19.354;2022-12-24T06:06:53;18.67;;;16.98;;
40284;SDS011;25997;50.214;19.354;2022-12-24T06:09:56;17.92;;;16.13;;
40284;SDS011;25997;50.214;19.354;2022-12-24T06:12:59;16.98;;;15.30;;
40284;SDS011;25997;50.214;19.354;2022-12-24T06:16:02;17.63;;;16.02;;
40284;SDS011;25997;50.214;19.354;2022-12-24T06:19:06;18.95;;;16.95;;
40284;SDS011;25997;50.214;19.354;2022-12-24T06:22:10;28.80;;;26.25;;
40284;SDS011;25997;50.214;19.354;2022-12-24T06:25:13;24.75;;;22.27;;
40284;SDS011;25997;50.214;19.354;2022-12-24T06:28:15;24.23;;;21.85;;
40284;SDS011;25997;50.214;19.354;2022-12-24T06:31:20;17.85;;;16.15;;
40284;SDS011;25997;50.214;19.354;2022-12-24T06:34:24;20.05;;;18.10;;
40284;SDS011;25997;50.214;19.354;2022-12-24T06:37:28;17.98;;;16.02;;
40284;SDS011;25997;50.214;19.354;2022-12-24T06:40:31;21.00;;;19.00;;
40284;SDS011;25997;50.214;19.354;2022-12-24T06:43:33;23.27;;;20.90;;
40284;SDS011;25997;50.214;19.354;2022-12-24T06:46:36;41.05;;;37.08;;
40284;SDS011;25997;50.214;19.354;2022-12-24T06:49:39;33.20;;;29.48;;
40284;SDS011;25997;50.214;19.354;2022-12-24T06:52:43;25.50;;;22.77;;
40284;SDS011;25997;50.214;19.354;2022-12-24T06:55:46;27.00;;;24.05;;
40284;SDS011;25997;50.214;19.354;2022-12-24T06:58:48;37.70;;;33.70;;
40284;SDS011;25997;50.214;19.354;2022-12-24T07:01:51;54.20;;;48.35;;
40284;SDS011;25997;50.214;19.354;2022-12-24T07:04:53;58.55;;;52.17;;
40284;SDS011;25997;50.214;19.354;2022-12-24T07:07:57;42.45;;;37.13;;
40284;SDS011;25997;50.214;19.354;2022-12-24T07:11:00;35.83;;;29.58;;
40284;SDS011;25997;50.214;19.354;2022-12-24T07:14:03;47.53;;;40.00;;
40284;SDS011;25997;50.214;19.354;2022-12-24T07:17:05;27.17;;;23.90;;
40284;SDS011;25997;50.214;19.354;2022-12-24T07:20:09;25.02;;;22.42;;
40284;SDS011;25997;50.214;19.354;2022-12-24T07:23:15;23.95;;;21.58;;
40284;SDS011;25997;50.214;19.354;2022-12-24T07:26:18;25.02;;;22.27;;
40284;SDS011;25997;50.214;19.354;2022-12-24T07:29:20;20.52;;;18.42;;
40284;SDS011;25997;50.214;19.354;2022-12-24T07:32:23;20.95;;;18.90;;
40284;SDS011;25997;50.214;19.354;2022-12-24T07:35:25;23.13;;;20.67;;
40284;SDS011;25997;50.214;19.354;2022-12-24T07:38:30;23.00;;;20.73;;
40284;SDS011;25997;50.214;19.354;2022-12-24T07:41:32;21.55;;;19.35;;
40284;SDS011;25997;50.214;19.354;2022-12-24T07:44:35;20.33;;;18.23;;
40284;SDS011;25997;50.214;19.354;2022-12-24T07:47:37;19.13;;;17.13;;
40284;SDS011;25997;50.214;19.354;2022-12-24T07:50:40;21.88;;;19.77;;
40284;SDS011;25997;50.214;19.354;2022-12-24T07:53:44;22.42;;;20.23;;
40284;SDS011;25997;50.214;19.354;2022-12-24T07:56:47;21.25;;;19.05;;
40284;SDS011;25997;50.214;19.354;2022-12-24T07:59:50;19.35;;;17.35;;
40284;SDS011;25997;50.214;19.354;2022-12-24T08:02:52;18.58;;;16.75;;
40284;SDS011;25997;50.214;19.354;2022-12-24T08:05:55;17.50;;;15.70;;
40284;SDS011;25997;50.214;19.354;2022-12-24T08:08:59;19.40;;;16.75;;
40284;SDS011;25997;50.214;19.354;2022-12-24T08:12:02;17.23;;;14.88;;
40284;SDS011;25997;50.214;19.354;2022-12-24T08:15:05;16.63;;;14.90;;
40284;SDS011;25997;50.214;19.354;2022-12-24T08:18:08;17.50;;;14.70;;
40284;SDS011;25997;50.214;19.354;2022-12-24T08:21:11;15.70;;;13.98;;
40284;SDS011;25997;50.214;19.354;2022-12-24T08:24:15;18.45;;;16.60;;
40284;SDS011;25997;50.214;19.354;2022-12-24T08:27:17;18.05;;;16.15;;
40284;SDS011;25997;50.214;19.354;2022-12-24T08:30:20;16.95;;;15.02;;
40284;SDS011;25997;50.214;19.354;2022-12-24T08:33:22;21.35;;;19.15;;
40284;SDS011;25997;50.214;19.354;2022-12-24T08:36:25;16.60;;;14.93;;
40284;SDS011;25997;50.214;19.354;2022-12-24T08:39:29;17.15;;;15.55;;
40284;SDS011;25997;50.214;19.354;2022-12-24T08:42:32;17.58;;;14.23;;
40284;SDS011;25997;50.214;19.354;2022-12-24T08:45:35;16.13;;;14.52;;
40284;SDS011;25997;50.214;19.354;2022-12-24T08:48:39;18.98;;;15.93;;
40284;SDS011;25997;50.214;19.354;2022-12-24T08:51:42;15.80;;;14.20;;
40284;SDS011;25997;50.214;19.354;2022-12-24T08:54:46;18.02;;;14.82;;
40284;SDS011;25997;50.214;19.354;2022-12-24T08:57:48;15.45;;;13.50;;
40284;SDS011;25997;50.214;19.354;2022-12-24T09:00:51;18.55;;;16.58;;
40284;SDS011;25997;50.214;19.354;2022-12-24T09:03:53;18.90;;;17.05;;
40284;SDS011;25997;50.214;19.354;2022-12-24T09:06:56;26.05;;;21.15;;
40284;SDS011;25997;50.214;19.354;2022-12-24T09:10:00;24.85;;;20.70;;
40284;SDS011;25997;50.214;19.354;2022-12-24T09:13:03;20.73;;;16.15;;
40284;SDS011;25997;50.214;19.354;2022-12-24T09:16:06;17.23;;;15.35;;
40284;SDS011;25997;50.214;19.354;2022-12-24T09:19:09;17.45;;;14.65;;
40284;SDS011;25997;50.214;19.354;2022-12-24T09:22:12;21.33;;;18.75;;
40284;SDS011;25997;50.214;19.354;2022-12-24T09:25:16;19.23;;;16.02;;
40284;SDS011;25997;50.214;19.354;2022-12-24T09:28:19;28.10;;;25.30;;
40284;SDS011;25997;50.214;19.354;2022-12-24T09:31:22;24.48;;;22.20;;
40284;SDS011;25997;50.214;19.354;2022-12-24T09:34:25;21.08;;;19.00;;
40284;SDS011;25997;50.214;19.354;2022-12-24T09:37:27;17.75;;;15.90;;
40284;SDS011;25997;50.214;19.354;2022-12-24T09:40:34;17.90;;;16.00;;
40284;SDS011;25997;50.214;19.354;2022-12-24T09:43:39;20.13;;;18.02;;
40284;SDS011;25997;50.214;19.354;2022-12-24T09:46:47;18.33;;;15.07;;
40284;SDS011;25997;50.214;19.354;2022-12-24T09:49:52;17.23;;;15.43;;
40284;SDS011;25997;50.214;19.354;2022-12-24T09:52:57;19.77;;;14.40;;
40284;SDS011;25997;50.214;19.354;2022-12-24T09:56:05;19.52;;;16.13;;
40284;SDS011;25997;50.214;19.354;2022-12-24T09:59:13;14.13;;;11.17;;
40284;SDS011;25997;50.214;19.354;2022-12-24T10:02:18;16.17;;;13.82;;
40284;SDS011;25997;50.214;19.354;2022-12-24T10:05:23;21.55;;;14.23;;
40284;SDS011;25997;50.214;19.354;2022-12-24T10:08:34;15.82;;;14.10;;
40284;SDS011;25997;50.214;19.354;2022-12-24T10:11:59;16.17;;;12.80;;
40284;SDS011;25997;50.214;19.354;2022-12-24T10:15:09;17.25;;;12.70;;
40284;SDS011;25997;50.214;19.354;2022-12-24T10:18:24;14.73;;;11.38;;
40284;SDS011;25997;50.214;19.354;2022-12-24T10:21:36;16.75;;;14.02;;
40284;SDS011;25997;50.214;19.354;2022-12-24T10:24:51;17.88;;;11.48;;
40284;SDS011;25997;50.214;19.354;2022-12-24T10:28:02;20.00;;;13.43;;
40284;SDS011;25997;50.214;19.354;2022-12-24T10:31:15;14.52;;;10.50;;
40284;SDS011;25997;50.214;19.354;2022-12-24T10:34:29;13.50;;;10.93;;
40284;SDS011;25997;50.214;19.354;2022-12-24T10:37:34;14.18;;;11.27;;
40284;SDS011;25997;50.214;19.354;2022-12-24T10:40:39;14.73;;;10.25;;
40284;SDS011;25997;50.214;19.354;2022-12-24T10:43:45;16.60;;;11.18;;
40284;SDS011;25997;50.214;19.354;2022-12-24T10:46:49;17.17;;;12.35;;
40284;SDS011;25997;50.214;19.354;2022-12-24T10:49:53;13.48;;;11.43;;
40284;SDS011;25997;50.214;19.354;2022-12-24T10:53:05;15.60;;;12.68;;
40284;SDS011;25997;50.214;19.354;2022-12-24T10:56:16;17.50;;;12.48;;
40284;SDS011;25997;50.214;19.354;2022-12-24T10:59:25;18.35;;;12.63;;
40284;SDS011;25997;50.214;19.354;2022-12-24T11:02:29;20.00;;;13.93;;
40284;SDS011;25997;50.214;19.354;2022-12-24T11:05:34;20.33;;;16.90;;
40284;SDS011;25997;50.214;19.354;2022-12-24T11:08:39;19.15;;;13.85;;
40284;SDS011;25997;50.214;19.354;2022-12-24T11:11:42;19.98;;;15.73;;
40284;SDS011;25997;50.214;19.354;2022-12-24T11:14:46;15.25;;;12.52;;
40284;SDS011;25997;50.214;19.354;2022-12-24T11:18:00;18.30;;;13.52;;
40284;SDS011;25997;50.214;19.354;2022-12-24T11:21:05;19.63;;;13.55;;
40284;SDS011;25997;50.214;19.354;2022-12-24T11:24:14;18.42;;;13.75;;
40284;SDS011;25997;50.214;19.354;2022-12-24T11:27:28;18.05;;;15.30;;
40284;SDS011;25997;50.214;19.354;2022-12-24T11:30:41;20.80;;;16.73;;
40284;SDS011;25997;50.214;19.354;2022-12-24T11:33:45;42.15;;;29.33;;
40284;SDS011;25997;50.214;19.354;2022-12-24T11:36:49;32.83;;;23.48;;
40284;SDS011;25997;50.214;19.354;2022-12-24T11:39:53;34.53;;;23.90;;
40284;SDS011;25997;50.214;19.354;2022-12-24T11:42:58;28.40;;;22.63;;
40284;SDS011;25997;50.214;19.354;2022-12-24T11:46:10;32.85;;;24.13;;
40284;SDS011;25997;50.214;19.354;2022-12-24T11:49:16;64.30;;;45.58;;
40284;SDS011;25997;50.214;19.354;2022-12-24T11:52:24;48.97;;;39.08;;
40284;SDS011;25997;50.214;19.354;2022-12-24T11:55:39;52.88;;;41.45;;
40284;SDS011;25997;50.214;19.354;2022-12-24T11:58:46;35.10;;;28.77;;
40284;SDS011;25997;50.214;19.354;2022-12-24T12:01:56;33.88;;;28.13;;
40284;SDS011;25997;50.214;19.354;2022-12-24T12:05:04;19.83;;;16.50;;
40284;SDS011;25997;50.214;19.354;2022-12-24T12:08:13;21.48;;;18.17;;
40284;SDS011;25997;50.214;19.354;2022-12-24T12:11:19;28.67;;;24.63;;
40284;SDS011;25997;50.214;19.354;2022-12-24T12:14:24;28.30;;;21.48;;
40284;SDS011;25997;50.214;19.354;2022-12-24T12:17:33;34.65;;;27.42;;
40284;SDS011;25997;50.214;19.354;2022-12-24T12:23:46;31.90;;;25.10;;
40284;SDS011;25997;50.214;19.354;2022-12-24T12:26:55;25.75;;;21.52;;
40284;SDS011;25997;50.214;19.354;2022-12-24T12:30:08;22.13;;;19.80;;
40284;SDS011;25997;50.214;19.354;2022-12-24T12:33:18;36.10;;;26.77;;
40284;SDS011;25997;50.214;19.354;2022-12-24T12:36:27;51.97;;;38.42;;
40284;SDS011;25997;50.214;19.354;2022-12-24T12:39:34;18.17;;;15.82;;
40284;SDS011;25997;50.214;19.354;2022-12-24T12:42:37;17.38;;;14.70;;
40284;SDS011;25997;50.214;19.354;2022-12-24T12:45:42;26.90;;;22.05;;
40284;SDS011;25997;50.214;19.354;2022-12-24T12:49:04;24.45;;;20.20;;
40284;SDS011;25997;50.214;19.354;2022-12-24T12:52:18;48.85;;;36.30;;
40284;SDS011;25997;50.214;19.354;2022-12-24T12:55:32;29.70;;;21.13;;
40284;SDS011;25997;50.214;19.354;2022-12-24T12:58:44;83.07;;;50.80;;
40284;SDS011;25997;50.214;19.354;2022-12-24T13:01:53;28.45;;;21.02;;
40284;SDS011;25997;50.214;19.354;2022-12-24T13:05:18;28.58;;;19.92;;
40284;SDS011;25997;50.214;19.354;2022-12-24T13:12:33;18.60;;;16.23;;
40284;SDS011;25997;50.214;19.354;2022-12-24T13:15:49;24.20;;;17.97;;
40284;SDS011;25997;50.214;19.354;2022-12-24T13:19:08;20.73;;;14.57;;
40284;SDS011;25997;50.214;19.354;2022-12-24T13:22:29;36.50;;;29.70;;
40284;SDS011;25997;50.214;19.354;2022-12-24T13:25:34;24.95;;;17.50;;
40284;SDS011;25997;50.214;19.354;2022-12-24T13:28:38;30.13;;;20.15;;
40284;SDS011;25997;50.214;19.354;2022-12-24T13:31:41;62.67;;;42.65;;
40284;SDS011;25997;50.214;19.354;2022-12-24T13:34:44;87.80;;;43.72;;
40284;SDS011;25997;50.214;19.354;2022-12-24T13:37:50;77.30;;;42.75;;
40284;SDS011;25997;50.214;19.354;2022-12-24T13:40:53;67.07;;;40.55;;
40284;SDS011;25997;50.214;19.354;2022-12-24T13:44:02;67.35;;;41.65;;
40284;SDS011;25997;50.214;19.354;2022-12-24T13:47:19;76.95;;;44.42;;
40284;SDS011;25997;50.214;19.354;2022-12-24T13:50:27;112.50;;;58.72;;
40284;SDS011;25997;50.214;19.354;2022-12-24T13:53:41;314.98;;;180.10;;
40284;SDS011;25997;50.214;19.354;2022-12-24T13:56:46;88.90;;;52.72;;
40284;SDS011;25997;50.214;19.354;2022-12-24T13:59:52;24.38;;;17.15;;
40284;SDS011;25997;50.214;19.354;2022-12-24T14:03:00;77.80;;;44.83;;
40284;SDS011;25997;50.214;19.354;2022-12-24T14:06:07;62.45;;;41.75;;
40284;SDS011;25997;50.214;19.354;2022-12-24T14:09:14;116.45;;;69.78;;
40284;SDS011;25997;50.214;19.354;2022-12-24T14:12:30;87.80;;;49.28;;
40284;SDS011;25997;50.214;19.354;2022-12-24T14:19:09;67.97;;;40.38;;
40284;SDS011;25997;50.214;19.354;2022-12-24T14:22:18;28.27;;;20.17;;
40284;SDS011;25997;50.214;19.354;2022-12-24T14:25:30;40.03;;;27.10;;
40284;SDS011;25997;50.214;19.354;2022-12-24T14:28:34;40.47;;;26.02;;
40284;SDS011;25997;50.214;19.354;2022-12-24T14:31:48;31.30;;;27.92;;
40284;SDS011;25997;50.214;19.354;2022-12-24T14:38:07;20.17;;;16.05;;
40284;SDS011;25997;50.214;19.354;2022-12-24T14:41:26;23.17;;;18.13;;
40284;SDS011;25997;50.214;19.354;2022-12-24T14:47:44;21.20;;;15.50;;
40284;SDS011;25997;50.214;19.354;2022-12-24T14:50:56;24.23;;;17.27;;
